Salamis Filoxenia — 5BUY2 — position and weather

sailwx.info

Track history (hours):
 
Tides and Currents Weather Stations Pressure Air Temp Water Temp Dewpoint Dewpoint Depression Visibility Wind Speed Wind Dir Waves Ship Positions

Salamis Filoxenia

Last reported at 2016-Sep-24 03:32 UTC. Time now 2016-Sep-26 07:04 UTC.
Position N 38°01' E 024°37'.

Length 157 m; draft 6.2 m.

Type: Passenger vessel. MMSI: 209167000.

Date/timePositionNaut miles runAvg speedWind from/ knotsBaromVisibWave heightAir tempDewpointWater temp
2016-Sep-24 03:32N 38°01' E 024°37'1713.8
2016-Sep-24 02:18N 38°18' E 024°32'148 5.7
2016-Sep-23 00:33N 40°22' E 022°47'1212.4
2016-Sep-22 23:33N 40°33' E 022°52'6 1.9
2016-Sep-22 20:33N 40°38' E 022°56'  
2016-Sep-19 14:12N 34°39' E 032°32'913.9
2016-Sep-19 13:33N 34°36' E 032°43'1313.5
2016-Sep-19 12:34N 34°32' E 032°58'7 7.4
2016-Sep-19 11:33N 34°39' E 033°01'0 0.0
2016-Sep-19 09:33N 34°39' E 033°01'0 0.0
2016-Sep-19 07:30N 34°39' E 033°01'0 0.0
2016-Sep-19 06:32N 34°39' E 033°01'18 6.1
2016-Sep-19 03:31N 34°37' E 032°39'12114.7
2016-Sep-18 19:18N 35°31' E 030°27'  
2016-Sep-16 12:33N 34°32' E 032°59'7 2.4
2016-Sep-16 09:33N 34°39' E 033°01'0 0.0
2016-Sep-16 07:33N 34°39' E 033°01'1 0.2
2016-Sep-16 03:34N 34°39' E 033°02'1515.1
2016-Sep-16 02:34N 34°28' E 033°14'132 9.4
2016-Sep-15 12:33N 32°49' E 035°00'0 0.0
2016-Sep-15 11:33N 32°49' E 035°00'0 0.0
2016-Sep-15 04:33N 32°49' E 035°00'0 0.0
2016-Sep-15 03:33N 32°49' E 035°00'13212.0
2016-Sep-14 16:33N 34°28' E 033°15'16 5.4
2016-Sep-14 13:33N 34°39' E 033°01'0 0.0
2016-Sep-14 12:33N 34°39' E 033°01'0 0.0
2016-Sep-14 10:33N 34°39' E 033°01'0 0.0
2016-Sep-14 09:33N 34°39' E 033°01'0 0.3
2016-Sep-14 08:33N 34°39' E 033°01'8 7.7
2016-Sep-14 07:33N 34°32' E 032°57'1414.0
2016-Sep-14 06:34N 34°36' E 032°41'  
Track history (hours):
 
Tides and Currents Weather Stations Pressure Air Temp Water Temp Dewpoint Dewpoint Depression Visibility Wind Speed Wind Dir Waves Ship Positions

Salamis Filoxenia

Last reported at 2016-Sep-24 03:32 UTC. Time now 2016-Sep-26 07:04 UTC.
Position N 38°01' E 024°37'.

Length 157 m; draft 6.2 m.

Type: Passenger vessel. MMSI: 209167000.

Date/timePositionNaut miles runAvg speedWind from/ knotsBaromVisibWave heightAir tempDewpointWater temp
2016-Sep-24 03:32N 38°01' E 024°37'1713.8
2016-Sep-24 02:18N 38°18' E 024°32'148 5.7
2016-Sep-23 00:33N 40°22' E 022°47'1212.4
2016-Sep-22 23:33N 40°33' E 022°52'6 1.9
2016-Sep-22 20:33N 40°38' E 022°56'  
2016-Sep-19 14:12N 34°39' E 032°32'913.9
2016-Sep-19 13:33N 34°36' E 032°43'1313.5
2016-Sep-19 12:34N 34°32' E 032°58'7 7.4
2016-Sep-19 11:33N 34°39' E 033°01'0 0.0
2016-Sep-19 09:33N 34°39' E 033°01'0 0.0
2016-Sep-19 07:30N 34°39' E 033°01'0 0.0
2016-Sep-19 06:32N 34°39' E 033°01'18 6.1
2016-Sep-19 03:31N 34°37' E 032°39'12114.7
2016-Sep-18 19:18N 35°31' E 030°27'  
2016-Sep-16 12:33N 34°32' E 032°59'7 2.4
2016-Sep-16 09:33N 34°39' E 033°01'0 0.0
2016-Sep-16 07:33N 34°39' E 033°01'1 0.2
2016-Sep-16 03:34N 34°39' E 033°02'1515.1
2016-Sep-16 02:34N 34°28' E 033°14'132 9.4
2016-Sep-15 12:33N 32°49' E 035°00'0 0.0
2016-Sep-15 11:33N 32°49' E 035°00'0 0.0
2016-Sep-15 04:33N 32°49' E 035°00'0 0.0
2016-Sep-15 03:33N 32°49' E 035°00'13212.0
2016-Sep-14 16:33N 34°28' E 033°15'16 5.4
2016-Sep-14 13:33N 34°39' E 033°01'0 0.0
2016-Sep-14 12:33N 34°39' E 033°01'0 0.0
2016-Sep-14 10:33N 34°39' E 033°01'0 0.0
2016-Sep-14 09:33N 34°39' E 033°01'0 0.3
2016-Sep-14 08:33N 34°39' E 033°01'8 7.7
2016-Sep-14 07:33N 34°32' E 032°57'1414.0
2016-Sep-14 06:34N 34°36' E 032°41'  

Dump ship's entire track history